createdAt,value
2018-12-10T00:00:59.231Z,0.00
2018-12-10T00:01:59.220Z,0.00
2018-12-10T00:02:59.217Z,0.00
2018-12-10T00:03:59.197Z,0.00
2018-12-10T00:04:59.187Z,0.00
2018-12-10T00:05:59.181Z,0.00
2018-12-10T00:06:59.165Z,0.00
2018-12-10T00:07:59.155Z,0.00
2018-12-10T00:08:59.146Z,0.00
2018-12-10T00:09:59.133Z,0.00
2018-12-10T00:10:59.123Z,0.00
2018-12-10T00:11:59.116Z,0.00
2018-12-10T00:12:59.101Z,0.00
2018-12-10T00:13:59.100Z,0.00
2018-12-10T00:14:59.079Z,0.00
2018-12-10T00:15:59.070Z,0.00
2018-12-10T00:16:59.058Z,0.00
2018-12-10T00:17:59.047Z,0.00
2018-12-10T00:18:59.040Z,0.00
2018-12-10T00:19:59.028Z,0.00
2018-12-10T00:20:59.015Z,0.00
2018-12-10T00:21:59.005Z,0.00
2018-12-10T00:22:58.994Z,0.00
2018-12-10T00:23:58.986Z,0.00
2018-12-10T00:24:58.994Z,0.00
2018-12-10T00:25:59.052Z,0.00
2018-12-10T00:26:58.953Z,0.00
2018-12-10T00:27:58.941Z,0.00
2018-12-10T00:28:58.931Z,0.00
2018-12-10T00:29:58.919Z,0.00
2018-12-10T00:30:58.914Z,0.00
2018-12-10T00:31:58.897Z,0.00
2018-12-10T00:32:58.888Z,0.00
2018-12-10T00:33:58.876Z,0.00
2018-12-10T00:34:58.865Z,0.00
2018-12-10T00:35:59.143Z,0.00
2018-12-10T00:36:58.844Z,0.00
2018-12-10T00:37:58.832Z,0.00
2018-12-10T00:38:58.824Z,0.00
2018-12-10T00:39:58.812Z,0.00
2018-12-10T00:40:58.801Z,0.00
2018-12-10T00:41:58.798Z,0.00
2018-12-10T00:42:58.780Z,0.00
2018-12-10T00:43:58.770Z,0.00
2018-12-10T00:44:58.760Z,0.00
2018-12-10T00:45:58.749Z,0.00
2018-12-10T00:46:58.745Z,0.00
2018-12-10T00:47:58.728Z,0.00
2018-12-10T00:48:58.720Z,0.00
2018-12-10T00:49:58.706Z,0.00
2018-12-10T00:50:58.697Z,0.00
2018-12-10T00:51:58.685Z,0.00
2018-12-10T00:52:58.677Z,0.00
2018-12-10T00:53:58.667Z,0.00
2018-12-10T00:54:58.654Z,0.00
2018-12-10T00:55:58.643Z,0.00
2018-12-10T00:56:58.633Z,0.00
2018-12-10T00:57:58.629Z,0.00
2018-12-10T00:58:58.611Z,0.00
2018-12-10T00:59:58.707Z,0.00
2018-12-10T01:00:58.589Z,0.00
2018-12-10T01:01:58.580Z,0.00
2018-12-10T01:02:58.567Z,0.00
2018-12-10T01:03:58.562Z,0.00
2018-12-10T01:04:58.549Z,0.00
2018-12-10T01:05:58.536Z,0.00
2018-12-10T01:06:58.890Z,0.00
2018-12-10T01:07:58.515Z,0.00
2018-12-10T01:08:58.789Z,0.00
2018-12-10T01:09:58.494Z,0.00
2018-12-10T01:10:58.484Z,0.00
2018-12-10T01:11:58.473Z,0.00
2018-12-10T01:12:58.463Z,0.00
2018-12-10T01:13:58.450Z,0.00
2018-12-10T01:14:58.445Z,464.00
2018-12-10T01:15:58.432Z,1012.00
2018-12-10T01:16:58.418Z,1172.00
2018-12-10T01:17:58.409Z,1180.00
2018-12-10T01:18:58.400Z,1180.00
2018-12-10T01:19:58.394Z,1200.00
2018-12-10T01:20:58.376Z,1140.00
2018-12-10T01:21:58.365Z,1132.00
2018-12-10T01:22:58.356Z,1168.00
2018-12-10T01:23:58.344Z,1128.00
2018-12-10T01:24:58.334Z,1112.00
2018-12-10T01:25:58.380Z,0.00
2018-12-10T01:26:58.312Z,0.00
2018-12-10T01:27:58.302Z,0.00
2018-12-10T01:28:58.292Z,0.00
2018-12-10T01:29:58.279Z,0.00
2018-12-10T01:30:58.291Z,0.00
2018-12-10T01:31:58.262Z,0.00
2018-12-10T01:32:58.248Z,0.00
2018-12-10T01:33:58.238Z,0.00
2018-12-10T01:34:58.226Z,0.00
2018-12-10T01:35:58.215Z,0.00
2018-12-10T01:36:58.219Z,0.00
2018-12-10T01:37:58.194Z,0.00
2018-12-10T01:38:58.183Z,0.00
2018-12-10T01:39:58.175Z,0.00
2018-12-10T01:40:58.165Z,0.00
2018-12-10T01:41:58.475Z,0.00
2018-12-10T01:42:58.141Z,0.00
2018-12-10T01:43:58.130Z,0.00
2018-12-10T01:44:58.120Z,0.00
2018-12-10T01:45:58.110Z,0.00
2018-12-10T01:46:58.098Z,0.00
2018-12-10T01:47:58.198Z,0.00
2018-12-10T01:48:58.079Z,0.00
2018-12-10T01:49:58.069Z,0.00
2018-12-10T01:50:58.057Z,0.00
2018-12-10T01:51:58.045Z,0.00
2018-12-10T01:52:58.044Z,0.00
2018-12-10T01:53:58.023Z,0.00
2018-12-10T01:54:58.013Z,0.00
2018-12-10T01:55:58.003Z,0.00
2018-12-10T01:56:57.992Z,0.00
2018-12-10T01:57:57.981Z,0.00
2018-12-10T01:58:57.974Z,0.00
2018-12-10T01:59:57.960Z,0.00
2018-12-10T02:00:57.951Z,0.00
2018-12-10T02:01:57.939Z,0.00
2018-12-10T02:02:57.928Z,0.00
2018-12-10T02:03:57.926Z,0.00
2018-12-10T02:04:57.907Z,0.00
2018-12-10T02:05:57.898Z,0.00
2018-12-10T02:06:57.887Z,0.00
2018-12-10T02:07:57.876Z,0.00
2018-12-10T02:08:57.866Z,0.00
2018-12-10T02:09:57.855Z,0.00
2018-12-10T02:10:57.892Z,0.00
2018-12-10T02:11:57.837Z,0.00
2018-12-10T02:12:57.826Z,0.00
2018-12-10T02:13:57.811Z,0.00
2018-12-10T02:14:57.806Z,0.00
2018-12-10T02:15:57.789Z,0.00
2018-12-10T02:16:57.778Z,0.00
2018-12-10T02:17:57.769Z,0.00
2018-12-10T02:18:57.758Z,0.00
2018-12-10T02:19:57.747Z,0.00
2018-12-10T02:20:57.738Z,0.00
2018-12-10T02:21:57.725Z,0.00
2018-12-10T02:22:57.715Z,0.00
2018-12-10T02:23:57.706Z,0.00
2018-12-10T02:24:57.693Z,0.00
2018-12-10T02:25:57.703Z,0.00
2018-12-10T02:26:57.672Z,0.00
2018-12-10T02:27:57.661Z,0.00
2018-12-10T02:28:57.650Z,0.00
2018-12-10T02:29:57.642Z,0.00
2018-12-10T02:30:57.630Z,0.00
2018-12-10T02:31:57.620Z,0.00
2018-12-10T02:32:57.608Z,0.00
2018-12-10T02:33:57.599Z,0.00
2018-12-10T02:34:57.587Z,0.00
2018-12-10T02:35:57.574Z,0.00
2018-12-10T02:36:57.843Z,0.00
2018-12-10T02:37:57.555Z,0.00
2018-12-10T02:38:57.543Z,0.00
2018-12-10T02:39:57.535Z,0.00
2018-12-10T02:40:57.521Z,0.00
2018-12-10T02:41:57.510Z,0.00
2018-12-10T02:42:57.501Z,0.00
2018-12-10T02:43:57.491Z,0.00
2018-12-10T02:44:57.479Z,0.00
2018-12-10T02:45:57.470Z,0.00
2018-12-10T02:46:57.459Z,0.00
2018-12-10T02:47:57.774Z,0.00
2018-12-10T02:48:57.441Z,0.00
2018-12-10T02:49:57.425Z,0.00
2018-12-10T02:50:57.418Z,0.00
2018-12-10T02:51:57.405Z,0.00
2018-12-10T02:52:57.400Z,0.00
2018-12-10T02:53:57.384Z,0.00
2018-12-10T02:54:57.374Z,0.00
2018-12-10T02:55:57.362Z,0.00
2018-12-10T02:56:57.356Z,0.00
2018-12-10T02:57:57.341Z,0.00
2018-12-10T02:58:57.338Z,0.00
2018-12-10T02:59:57.321Z,0.00
2018-12-10T03:00:57.307Z,0.00
2018-12-10T03:01:57.297Z,0.00
2018-12-10T03:02:57.286Z,0.00
2018-12-10T03:03:57.276Z,0.00
2018-12-10T03:04:57.267Z,0.00
2018-12-10T03:05:57.254Z,0.00
2018-12-10T03:06:57.244Z,0.00
2018-12-10T03:07:57.235Z,0.00
2018-12-10T03:08:57.225Z,0.00
2018-12-10T03:09:57.503Z,0.00
2018-12-10T03:10:57.203Z,0.00
2018-12-10T03:11:57.191Z,0.00
2018-12-10T03:12:57.182Z,0.00
2018-12-10T03:13:57.169Z,0.00
2018-12-10T03:14:57.180Z,0.00
2018-12-10T03:15:57.151Z,0.00
2018-12-10T03:16:57.138Z,0.00
2018-12-10T03:17:57.127Z,0.00
2018-12-10T03:18:57.116Z,0.00
2018-12-10T03:19:57.112Z,0.00
2018-12-10T03:20:57.104Z,0.00
2018-12-10T03:21:57.089Z,0.00
2018-12-10T03:22:57.073Z,0.00
2018-12-10T03:23:57.063Z,0.00
2018-12-10T03:24:57.054Z,0.00
2018-12-10T03:25:57.044Z,0.00
2018-12-10T03:26:57.033Z,0.00
2018-12-10T03:27:57.019Z,0.00
2018-12-10T03:28:57.008Z,0.00
2018-12-10T03:29:56.999Z,0.00
2018-12-10T03:30:57.013Z,0.00
2018-12-10T03:31:57.011Z,0.00
2018-12-10T03:32:56.981Z,0.00
2018-12-10T03:33:56.954Z,0.00
2018-12-10T03:34:56.944Z,0.00
2018-12-10T03:35:56.934Z,0.00
2018-12-10T03:36:56.922Z,0.00
2018-12-10T03:37:56.913Z,0.00
2018-12-10T03:38:56.900Z,0.00
2018-12-10T03:39:56.891Z,0.00
2018-12-10T03:40:56.879Z,0.00
2018-12-10T03:41:56.874Z,0.00
2018-12-10T03:42:57.133Z,0.00
2018-12-10T03:43:56.847Z,0.00
2018-12-10T03:44:56.836Z,0.00
2018-12-10T03:45:56.825Z,0.00
2018-12-10T03:46:56.818Z,0.00
2018-12-10T03:47:56.805Z,0.00
2018-12-10T03:48:56.795Z,0.00
2018-12-10T03:49:56.783Z,0.00
2018-12-10T03:50:56.776Z,0.00
2018-12-10T03:51:56.762Z,0.00
2018-12-10T03:52:56.751Z,0.00
2018-12-10T03:53:56.761Z,0.00
2018-12-10T03:54:56.736Z,0.00
2018-12-10T03:55:56.724Z,0.00
2018-12-10T03:56:56.708Z,0.00
2018-12-10T03:57:56.699Z,0.00
2018-12-10T03:58:56.688Z,0.00
2018-12-10T03:59:56.677Z,0.00
2018-12-10T04:00:56.668Z,0.00
2018-12-10T04:01:56.654Z,0.00
2018-12-10T04:02:56.645Z,0.00
2018-12-10T04:03:56.634Z,0.00
2018-12-10T04:04:56.630Z,0.00
2018-12-10T04:05:56.612Z,0.00
2018-12-10T04:06:56.602Z,0.00
2018-12-10T04:07:56.592Z,0.00
2018-12-10T04:08:56.579Z,0.00
2018-12-10T04:09:56.569Z,0.00
2018-12-10T04:10:56.604Z,0.00
2018-12-10T04:11:56.548Z,0.00
2018-12-10T04:12:56.538Z,0.00
2018-12-10T04:13:56.530Z,0.00
2018-12-10T04:14:56.516Z,0.00
2018-12-10T04:15:56.512Z,0.00
2018-12-10T04:16:56.499Z,0.00
2018-12-10T04:17:56.483Z,0.00
2018-12-10T04:18:56.472Z,0.00
2018-12-10T04:19:56.465Z,0.00
2018-12-10T04:20:56.452Z,0.00
2018-12-10T04:21:56.443Z,0.00
2018-12-10T04:22:56.432Z,0.00
2018-12-10T04:23:56.421Z,0.00
2018-12-10T04:24:56.409Z,0.00
2018-12-10T04:25:56.400Z,0.00
2018-12-10T04:26:56.410Z,0.00
2018-12-10T04:27:56.376Z,0.00
2018-12-10T04:28:56.367Z,0.00
2018-12-10T04:29:56.355Z,0.00
2018-12-10T04:30:56.345Z,0.00
2018-12-10T04:31:56.334Z,0.00
2018-12-10T04:32:56.326Z,0.00
2018-12-10T04:33:56.314Z,0.00
2018-12-10T04:34:56.309Z,0.00
2018-12-10T04:35:56.291Z,0.00
2018-12-10T04:36:56.281Z,0.00
2018-12-10T04:37:56.282Z,0.00
2018-12-10T04:38:56.258Z,0.00
2018-12-10T04:39:56.247Z,0.00
2018-12-10T04:40:56.238Z,0.00
2018-12-10T04:41:56.228Z,0.00
2018-12-10T04:42:56.218Z,0.00
2018-12-10T04:43:56.208Z,0.00
2018-12-10T04:44:56.197Z,0.00
2018-12-10T04:45:56.186Z,0.00
2018-12-10T04:46:56.178Z,0.00
2018-12-10T04:47:56.163Z,0.00
2018-12-10T04:48:56.439Z,0.00
2018-12-10T04:49:56.230Z,0.00
2018-12-10T04:50:56.131Z,0.00
2018-12-10T04:51:56.120Z,0.00
2018-12-10T04:52:56.109Z,0.00
2018-12-10T04:53:56.099Z,0.00
2018-12-10T04:54:56.092Z,0.00
2018-12-10T04:55:56.078Z,0.00
2018-12-10T04:56:56.066Z,0.00
2018-12-10T04:57:56.057Z,0.00
2018-12-10T04:58:56.046Z,0.00
2018-12-10T04:59:56.042Z,0.00
2018-12-10T05:00:56.025Z,0.00
2018-12-10T05:01:56.014Z,0.00
2018-12-10T05:02:56.005Z,0.00
2018-12-10T05:03:55.995Z,0.00
2018-12-10T05:04:55.980Z,0.00
2018-12-10T05:05:55.975Z,0.00
2018-12-10T05:06:55.963Z,0.00
2018-12-10T05:07:55.955Z,0.00
2018-12-10T05:08:55.939Z,0.00
2018-12-10T05:09:55.927Z,0.00
2018-12-10T05:10:55.928Z,0.00
2018-12-10T05:11:55.906Z,0.00
2018-12-10T05:12:55.902Z,0.00
2018-12-10T05:13:55.884Z,0.00
2018-12-10T05:14:55.874Z,0.00
2018-12-10T05:15:55.863Z,0.00
2018-12-10T05:16:55.855Z,0.00
2018-12-10T05:17:55.844Z,0.00
2018-12-10T05:18:55.832Z,0.00
2018-12-10T05:19:55.822Z,0.00
2018-12-10T05:20:55.810Z,0.00
2018-12-10T05:21:55.807Z,0.00
2018-12-10T05:22:55.787Z,0.00
2018-12-10T05:23:55.778Z,0.00
2018-12-10T05:24:55.766Z,0.00
2018-12-10T05:25:55.756Z,0.00
2018-12-10T05:26:55.745Z,0.00
2018-12-10T05:27:55.737Z,0.00
2018-12-10T05:28:55.725Z,0.00
2018-12-10T05:29:55.716Z,0.00
2018-12-10T05:30:55.703Z,0.00
2018-12-10T05:31:55.692Z,0.00
2018-12-10T05:32:55.688Z,0.00
2018-12-10T05:33:55.671Z,0.00
2018-12-10T05:34:55.660Z,0.00
2018-12-10T05:35:55.649Z,0.00
2018-12-10T05:36:55.639Z,0.00
2018-12-10T05:37:55.629Z,0.00
2018-12-10T05:38:55.625Z,0.00
2018-12-10T05:39:55.607Z,0.00
2018-12-10T05:40:57.241Z,0.00
2018-12-10T05:41:55.586Z,0.00
2018-12-10T05:42:55.575Z,0.00
2018-12-10T05:43:55.572Z,0.00
2018-12-10T05:44:55.554Z,0.00
2018-12-10T05:45:55.715Z,0.00
2018-12-10T05:46:55.535Z,0.00
2018-12-10T05:47:55.522Z,0.00
2018-12-10T05:48:55.510Z,0.00
2018-12-10T05:49:55.504Z,0.00
2018-12-10T05:50:55.490Z,0.00
2018-12-10T05:51:55.481Z,0.00
2018-12-10T05:52:55.469Z,0.00
2018-12-10T05:53:55.458Z,0.00
2018-12-10T05:54:55.735Z,0.00
2018-12-10T05:55:55.436Z,0.00
2018-12-10T05:56:55.426Z,0.00
2018-12-10T05:57:55.417Z,0.00
2018-12-10T05:58:55.405Z,0.00
2018-12-10T05:59:55.394Z,0.00
2018-12-10T06:00:55.385Z,0.00
2018-12-10T06:01:55.373Z,0.00
2018-12-10T06:02:55.361Z,0.00
2018-12-10T06:03:55.350Z,0.00
2018-12-10T06:04:55.339Z,0.00
2018-12-10T06:05:55.336Z,0.00
2018-12-10T06:06:55.318Z,0.00
2018-12-10T06:07:55.307Z,0.00
2018-12-10T06:08:55.297Z,0.00
2018-12-10T06:09:55.286Z,0.00
2018-12-10T06:10:55.275Z,0.00
2018-12-10T06:11:55.267Z,0.00
2018-12-10T06:12:55.256Z,0.00
2018-12-10T06:13:55.242Z,0.00
2018-12-10T06:14:55.231Z,0.00
2018-12-10T06:15:55.222Z,0.00
2018-12-10T06:16:55.218Z,0.00
2018-12-10T06:17:55.200Z,0.00
2018-12-10T06:18:55.190Z,0.00
2018-12-10T06:19:55.179Z,0.00
2018-12-10T06:20:55.168Z,0.00
2018-12-10T06:21:55.159Z,0.00
2018-12-10T06:22:55.149Z,0.00
2018-12-10T06:23:55.136Z,0.00
2018-12-10T06:24:55.129Z,0.00
2018-12-10T06:25:55.114Z,0.00
2018-12-10T06:26:55.104Z,0.00
2018-12-10T06:27:55.147Z,0.00
2018-12-10T06:28:55.083Z,0.00
2018-12-10T06:29:55.086Z,0.00
2018-12-10T06:30:55.063Z,0.00
2018-12-10T06:31:55.049Z,0.00
2018-12-10T06:32:55.040Z,0.00
2018-12-10T06:33:55.030Z,0.00
2018-12-10T06:34:55.018Z,0.00
2018-12-10T06:35:55.008Z,0.00
2018-12-10T06:36:54.995Z,0.00
2018-12-10T06:37:54.986Z,0.00
2018-12-10T06:38:54.998Z,0.00
2018-12-10T06:39:54.965Z,0.00
2018-12-10T06:40:54.955Z,0.00
2018-12-10T06:41:54.942Z,0.00
2018-12-10T06:42:54.932Z,0.00
2018-12-10T06:43:54.923Z,0.00
2018-12-10T06:44:54.914Z,0.00
2018-12-10T06:45:54.900Z,0.00
2018-12-10T06:46:54.888Z,0.00
2018-12-10T06:47:54.877Z,0.00
2018-12-10T06:48:54.868Z,0.00
2018-12-10T06:49:54.878Z,0.00
2018-12-10T06:50:54.847Z,0.00
2018-12-10T06:51:54.842Z,0.00
2018-12-10T06:52:54.824Z,0.00
2018-12-10T06:53:54.816Z,0.00
2018-12-10T06:54:54.802Z,0.00
2018-12-10T06:55:54.796Z,0.00
2018-12-10T06:56:54.783Z,0.00
2018-12-10T06:57:54.774Z,0.00
2018-12-10T06:58:54.762Z,0.00
2018-12-10T06:59:54.750Z,0.00
2018-12-10T07:00:55.070Z,0.00
2018-12-10T07:01:54.727Z,4.00
2018-12-10T07:02:54.718Z,0.00
2018-12-10T07:03:54.713Z,4.00
2018-12-10T07:04:54.696Z,4.00
2018-12-10T07:05:54.685Z,4.00
2018-12-10T07:06:54.677Z,4.00
2018-12-10T07:07:54.664Z,4.00
2018-12-10T07:08:54.654Z,4.00
2018-12-10T07:09:54.751Z,4.00
2018-12-10T07:10:54.632Z,4.00
2018-12-10T07:11:54.644Z,4.00
2018-12-10T07:12:54.610Z,4.00
2018-12-10T07:13:54.599Z,4.00
2018-12-10T07:14:54.590Z,4.00
2018-12-10T07:15:54.579Z,4.00
2018-12-10T07:16:54.647Z,4.00
2018-12-10T07:17:54.560Z,8.00
2018-12-10T07:18:54.549Z,4.00
2018-12-10T07:19:54.535Z,8.00
2018-12-10T07:20:54.524Z,8.00
2018-12-10T07:21:54.514Z,12.00
2018-12-10T07:22:54.523Z,12.00
2018-12-10T07:23:54.500Z,12.00
2018-12-10T07:24:54.485Z,16.00
2018-12-10T07:25:54.471Z,16.00
2018-12-10T07:26:54.462Z,16.00
2018-12-10T07:27:54.450Z,16.00
2018-12-10T07:28:54.445Z,16.00
2018-12-10T07:29:54.429Z,12.00
2018-12-10T07:30:54.418Z,16.00
2018-12-10T07:31:54.407Z,20.00
2018-12-10T07:32:54.396Z,16.00
2018-12-10T07:33:54.409Z,20.00
2018-12-10T07:34:54.376Z,24.00
2018-12-10T07:35:54.366Z,24.00
2018-12-10T07:36:54.354Z,24.00
2018-12-10T07:37:54.342Z,24.00
2018-12-10T07:38:54.332Z,20.00
2018-12-10T07:39:54.325Z,24.00
2018-12-10T07:40:54.311Z,20.00
2018-12-10T07:41:54.302Z,24.00
2018-12-10T07:42:54.289Z,24.00
2018-12-10T07:43:54.278Z,20.00
2018-12-10T07:44:54.274Z,20.00
2018-12-10T07:45:54.257Z,24.00
2018-12-10T07:46:54.247Z,28.00
2018-12-10T07:47:54.238Z,24.00
2018-12-10T07:48:54.227Z,20.00
2018-12-10T07:49:54.216Z,24.00
2018-12-10T07:50:54.206Z,24.00
2018-12-10T07:51:54.198Z,24.00
2018-12-10T07:52:54.183Z,20.00
2018-12-10T07:53:54.170Z,20.00
2018-12-10T07:54:54.162Z,24.00
2018-12-10T07:55:54.156Z,24.00
2018-12-10T07:56:54.139Z,20.00
2018-12-10T07:57:54.130Z,20.00
2018-12-10T07:58:54.119Z,16.00
2018-12-10T07:59:54.106Z,16.00
2018-12-10T08:00:54.095Z,12.00
2018-12-10T08:01:54.090Z,16.00
2018-12-10T08:02:54.075Z,16.00
2018-12-10T08:03:54.064Z,20.00
2018-12-10T08:04:54.057Z,20.00
2018-12-10T08:05:54.046Z,20.00
2018-12-10T08:06:54.042Z,20.00
2018-12-10T08:07:54.022Z,24.00
2018-12-10T08:08:54.013Z,24.00
2018-12-10T08:09:54.000Z,24.00
2018-12-10T08:10:53.990Z,36.00
2018-12-10T08:11:53.979Z,44.00
2018-12-10T08:12:53.973Z,60.00
2018-12-10T08:13:53.958Z,68.00
2018-12-10T08:14:53.946Z,72.00
2018-12-10T08:15:53.936Z,76.00
2018-12-10T08:16:53.926Z,72.00
2018-12-10T08:17:53.922Z,60.00
2018-12-10T08:18:53.905Z,52.00
2018-12-10T08:19:53.900Z,48.00
2018-12-10T08:21:01.917Z,44.00
2018-12-10T08:21:54.871Z,48.00
2018-12-10T08:22:53.863Z,48.00
2018-12-10T08:23:53.853Z,56.00
2018-12-10T08:24:53.840Z,56.00
2018-12-10T08:25:53.829Z,72.00
2018-12-10T08:26:53.821Z,60.00
2018-12-10T08:27:53.808Z,52.00
2018-12-10T08:28:59.993Z,60.00
2018-12-10T08:29:54.785Z,44.00
2018-12-10T08:30:53.774Z,48.00
2018-12-10T08:31:53.861Z,44.00
2018-12-10T08:32:53.766Z,56.00
2018-12-10T08:33:53.744Z,52.00
2018-12-10T08:34:53.735Z,68.00
2018-12-10T08:35:53.723Z,84.00
2018-12-10T08:36:55.637Z,116.00
2018-12-10T08:37:53.711Z,136.00
2018-12-10T08:38:53.691Z,132.00
2018-12-10T08:39:53.967Z,128.00
2018-12-10T08:40:53.669Z,136.00
2018-12-10T08:41:53.676Z,124.00
2018-12-10T08:42:53.648Z,104.00
2018-12-10T08:43:53.644Z,136.00
2018-12-10T08:44:53.732Z,116.00
2018-12-10T08:45:53.617Z,108.00
2018-12-10T08:46:53.605Z,112.00
2018-12-10T08:47:53.593Z,116.00
2018-12-10T08:48:53.582Z,120.00
2018-12-10T08:49:53.570Z,172.00
2018-12-10T08:50:53.566Z,128.00
2018-12-10T08:51:53.550Z,148.00
2018-12-10T08:52:53.539Z,136.00
2018-12-10T08:53:53.529Z,140.00
2018-12-10T08:54:53.518Z,124.00
2018-12-10T08:55:53.509Z,104.00
2018-12-10T08:56:53.498Z,124.00
2018-12-10T08:57:53.485Z,144.00
2018-12-10T08:58:53.477Z,160.00
2018-12-10T08:59:53.464Z,164.00
2018-12-10T09:00:53.455Z,196.00
2018-12-10T09:01:53.453Z,188.00
2018-12-10T09:02:53.438Z,192.00
2018-12-10T09:03:53.423Z,348.00
2018-12-10T09:04:53.420Z,344.00
2018-12-10T09:05:53.401Z,344.00
2018-12-10T09:06:53.391Z,340.00
2018-12-10T09:07:53.382Z,164.00
2018-12-10T09:08:53.370Z,168.00
2018-12-10T09:09:53.356Z,172.00
2018-12-10T09:10:53.347Z,152.00
2018-12-10T09:11:53.336Z,176.00
2018-12-10T09:12:53.332Z,296.00
2018-12-10T09:13:53.315Z,348.00
2018-12-10T09:14:53.308Z,224.00
2018-12-10T09:15:53.385Z,392.00
2018-12-10T09:16:53.284Z,1240.00
2018-12-10T09:17:53.271Z,1420.00
2018-12-10T09:18:53.264Z,1352.00
2018-12-10T09:19:53.253Z,1380.00
2018-12-10T09:20:53.240Z,1328.00
2018-12-10T09:21:53.230Z,1384.00
2018-12-10T09:22:53.229Z,1368.00
2018-12-10T09:23:53.219Z,1344.00
2018-12-10T09:24:53.196Z,1580.00
2018-12-10T09:25:53.187Z,1628.00
2018-12-10T09:26:53.176Z,1464.00
2018-12-10T09:27:53.165Z,1496.00
2018-12-10T09:28:53.157Z,1264.00
2018-12-10T09:29:53.148Z,1312.00
2018-12-10T09:30:53.133Z,1288.00
2018-12-10T09:31:53.125Z,1316.00
2018-12-10T09:32:53.113Z,1604.00
2018-12-10T09:33:53.100Z,1372.00
2018-12-10T09:34:53.099Z,1440.00
2018-12-10T09:35:53.080Z,1732.00
2018-12-10T09:36:53.069Z,1720.00
2018-12-10T09:37:53.062Z,1720.00
2018-12-10T09:38:53.049Z,1700.00
2018-12-10T09:39:53.037Z,1408.00
2018-12-10T09:40:53.028Z,1368.00
2018-12-10T09:41:53.016Z,1640.00
2018-12-10T09:42:53.005Z,1340.00
2018-12-10T09:43:52.997Z,888.00
2018-12-10T09:44:55.145Z,1364.00
2018-12-10T09:45:53.252Z,1364.00
2018-12-10T09:46:58.795Z,1356.00
2018-12-10T09:47:53.951Z,1412.00
2018-12-10T09:48:52.941Z,1416.00
2018-12-10T09:49:52.930Z,1336.00
2018-12-10T09:50:52.918Z,1608.00
2018-12-10T09:51:52.911Z,1228.00
2018-12-10T09:52:52.897Z,1232.00
2018-12-10T09:53:52.887Z,1252.00
2018-12-10T09:54:52.876Z,1408.00
2018-12-10T09:55:52.864Z,1356.00
2018-12-10T09:56:52.862Z,1416.00
2018-12-10T09:57:52.844Z,1428.00
2018-12-10T09:58:52.833Z,1412.00
2018-12-10T09:59:52.821Z,1412.00
2018-12-10T10:00:52.825Z,1632.00
2018-12-10T10:01:52.801Z,1256.00
2018-12-10T10:02:52.792Z,1308.00
2018-12-10T10:03:52.780Z,1248.00
2018-12-10T10:04:52.770Z,1320.00
2018-12-10T10:05:52.760Z,1352.00
2018-12-10T10:06:52.752Z,1324.00
2018-12-10T10:07:53.023Z,1284.00
2018-12-10T10:08:52.727Z,1352.00
2018-12-10T10:09:52.715Z,1308.00
2018-12-10T10:10:52.703Z,1500.00
2018-12-10T10:11:52.694Z,1292.00
2018-12-10T10:12:52.683Z,1460.00
2018-12-10T10:13:52.676Z,1276.00
2018-12-10T10:14:53.810Z,1384.00
2018-12-10T10:15:52.652Z,1336.00
2018-12-10T10:16:52.713Z,1252.00
2018-12-10T10:17:52.630Z,1260.00
2018-12-10T10:18:52.627Z,1304.00
2018-12-10T10:19:52.609Z,1356.00
2018-12-10T10:20:52.599Z,1268.00
2018-12-10T10:21:52.588Z,1280.00
2018-12-10T10:22:52.579Z,1284.00
2018-12-10T10:23:52.567Z,1248.00
2018-12-10T10:24:52.558Z,1364.00
2018-12-10T10:25:52.546Z,1348.00
2018-12-10T10:26:52.534Z,1472.00
2018-12-10T10:27:52.526Z,1380.00
2018-12-10T10:28:52.513Z,1676.00
2018-12-10T10:29:52.827Z,1560.00
2018-12-10T10:30:52.491Z,1960.00
2018-12-10T10:31:52.484Z,1372.00
2018-12-10T10:32:52.470Z,1592.00
2018-12-10T10:33:52.464Z,1744.00
2018-12-10T10:34:52.450Z,2352.00
2018-12-10T10:35:52.439Z,1580.00
2018-12-10T10:36:52.428Z,1928.00
2018-12-10T10:37:52.415Z,1444.00
2018-12-10T10:38:52.406Z,1612.00
2018-12-10T10:39:52.397Z,1364.00
2018-12-10T10:40:52.718Z,1460.00
2018-12-10T10:41:52.373Z,1372.00
2018-12-10T10:42:52.362Z,1304.00
2018-12-10T10:43:52.351Z,1492.00
2018-12-10T10:44:52.341Z,1504.00
2018-12-10T10:45:52.329Z,1632.00
2018-12-10T10:46:52.322Z,1276.00
2018-12-10T10:47:52.313Z,1264.00
2018-12-10T10:48:52.297Z,1200.00
2018-12-10T10:49:52.290Z,1204.00
2018-12-10T10:50:52.278Z,1180.00
2018-12-10T10:51:52.273Z,1172.00
2018-12-10T10:52:52.259Z,1188.00
2018-12-10T10:53:52.246Z,1224.00
2018-12-10T10:54:52.235Z,1236.00
2018-12-10T10:55:52.227Z,1260.00
2018-12-10T10:56:52.214Z,1188.00
2018-12-10T10:57:52.203Z,1160.00
2018-12-10T10:58:52.191Z,1216.00
2018-12-10T10:59:52.180Z,1160.00
2018-12-10T11:00:52.170Z,1168.00
2018-12-10T11:01:52.158Z,1200.00
2018-12-10T11:02:52.157Z,1204.00
2018-12-10T11:03:52.139Z,1224.00
2018-12-10T11:04:52.136Z,1256.00
2018-12-10T11:05:52.116Z,1192.00
2018-12-10T11:06:52.106Z,1200.00
2018-12-10T11:07:52.094Z,1200.00
2018-12-10T11:08:52.087Z,1168.00
2018-12-10T11:09:52.073Z,1188.00
2018-12-10T11:10:52.063Z,1160.00
2018-12-10T11:11:52.052Z,1168.00
2018-12-10T11:12:52.041Z,1200.00
2018-12-10T11:13:52.039Z,1160.00
2018-12-10T11:14:52.022Z,1152.00
2018-12-10T11:15:52.009Z,1192.00
2018-12-10T11:16:52.003Z,1152.00
2018-12-10T11:17:51.987Z,1160.00
2018-12-10T11:18:51.976Z,1164.00
2018-12-10T11:19:51.968Z,1184.00
2018-12-10T11:20:51.958Z,1176.00
2018-12-10T11:21:51.947Z,1164.00
2018-12-10T11:22:51.935Z,1224.00
2018-12-10T11:23:51.925Z,1168.00
2018-12-10T11:24:51.920Z,1164.00
2018-12-10T11:25:51.905Z,1176.00
2018-12-10T11:26:51.893Z,1188.00
2018-12-10T11:27:51.885Z,1216.00
2018-12-10T11:28:51.870Z,1200.00
2018-12-10T11:29:51.861Z,1216.00
2018-12-10T11:30:51.852Z,1188.00
2018-12-10T11:31:51.844Z,1192.00
2018-12-10T11:32:51.830Z,1164.00
2018-12-10T11:33:51.818Z,1156.00
2018-12-10T11:34:51.809Z,1216.00
2018-12-10T11:35:51.807Z,1164.00
2018-12-10T11:36:51.786Z,1196.00
2018-12-10T11:37:51.775Z,1152.00
2018-12-10T11:38:51.768Z,1192.00
2018-12-10T11:39:51.757Z,1172.00
2018-12-10T11:40:51.751Z,1164.00
2018-12-10T11:41:51.738Z,1152.00
2018-12-10T11:42:51.724Z,1152.00
2018-12-10T11:43:51.712Z,1144.00
2018-12-10T11:44:51.703Z,1140.00
2018-12-10T11:45:51.693Z,1140.00
2018-12-10T11:46:51.692Z,1168.00
2018-12-10T11:47:51.671Z,1192.00
2018-12-10T11:48:51.665Z,1144.00
2018-12-10T11:49:51.649Z,1148.00
2018-12-10T11:50:51.637Z,1136.00
2018-12-10T11:51:51.630Z,1184.00
2018-12-10T11:52:51.621Z,1180.00
2018-12-10T11:53:51.611Z,1192.00
2018-12-10T11:54:51.599Z,1140.00
2018-12-10T11:55:51.585Z,1168.00
2018-12-10T11:56:51.575Z,1204.00
2018-12-10T11:57:51.578Z,1188.00
2018-12-10T11:58:51.556Z,1212.00
2018-12-10T11:59:51.544Z,1184.00
2018-12-10T12:00:51.534Z,1228.00
2018-12-10T12:01:51.522Z,1176.00
2018-12-10T12:02:51.513Z,1176.00
2018-12-10T12:03:51.504Z,1152.00
2018-12-10T12:04:51.490Z,1152.00
2018-12-10T12:05:51.481Z,1164.00
2018-12-10T12:06:51.471Z,1148.00
2018-12-10T12:07:51.468Z,1172.00
2018-12-10T12:08:51.476Z,1160.00
2018-12-10T12:09:51.442Z,1184.00
2018-12-10T12:10:51.428Z,1136.00
2018-12-10T12:11:51.416Z,1136.00
2018-12-10T12:12:51.406Z,1180.00
2018-12-10T12:13:51.397Z,1144.00
2018-12-10T12:14:51.389Z,1164.00
2018-12-10T12:15:51.377Z,1188.00
2018-12-10T12:16:51.370Z,1140.00
2018-12-10T12:17:51.355Z,1144.00
2018-12-10T12:18:51.346Z,1200.00
2018-12-10T12:19:51.359Z,1196.00
2018-12-10T12:20:51.324Z,1152.00
2018-12-10T12:21:51.311Z,1196.00
2018-12-10T12:22:51.301Z,1148.00
2018-12-10T12:23:51.290Z,1172.00
2018-12-10T12:24:51.280Z,1140.00
2018-12-10T12:25:51.271Z,1156.00
2018-12-10T12:26:51.260Z,1176.00
2018-12-10T12:27:51.249Z,1172.00
2018-12-10T12:28:51.238Z,1160.00
2018-12-10T12:29:51.227Z,1196.00
2018-12-10T12:30:51.225Z,1168.00
2018-12-10T12:31:51.206Z,1140.00
2018-12-10T12:32:51.196Z,1156.00
2018-12-10T12:33:51.188Z,1172.00
2018-12-10T12:34:51.175Z,1144.00
2018-12-10T12:35:51.166Z,1144.00
2018-12-10T12:36:51.160Z,1144.00
2018-12-10T12:37:51.144Z,1160.00
2018-12-10T12:38:51.135Z,1136.00
2018-12-10T12:39:51.123Z,1152.00
2018-12-10T12:40:51.112Z,1164.00
2018-12-10T12:41:51.112Z,1176.00
2018-12-10T12:42:51.091Z,1160.00
2018-12-10T12:43:51.081Z,1160.00
2018-12-10T12:44:51.071Z,1136.00
2018-12-10T12:45:51.059Z,1132.00
2018-12-10T12:46:51.050Z,1152.00
2018-12-10T12:47:51.041Z,1192.00
2018-12-10T12:48:51.028Z,1164.00
2018-12-10T12:49:51.018Z,1148.00
2018-12-10T12:50:51.008Z,1164.00